createdAt,value
2019-06-26T00:00:02.185Z,29.2
2019-06-26T00:01:03.487Z,29.1
2019-06-26T00:02:04.803Z,29.1
2019-06-26T00:03:06.371Z,29.1
2019-06-26T00:04:07.775Z,29.1
2019-06-26T00:05:09.079Z,29.1
2019-06-26T00:06:10.359Z,29.1
2019-06-26T00:07:11.639Z,29.1
2019-06-26T00:08:13.120Z,29.1
2019-06-26T00:09:14.417Z,29.1
2019-06-26T00:10:15.699Z,29.1
2019-06-26T00:11:16.989Z,29.1
2019-06-26T00:12:18.267Z,29.1
2019-06-26T00:13:25.949Z,29.1
2019-06-26T00:14:28.129Z,29.1
2019-06-26T00:15:29.419Z,29.1
2019-06-26T00:16:30.708Z,29.1
2019-06-26T00:17:31.995Z,29.1
2019-06-26T00:18:33.456Z,29.1
2019-06-26T00:19:34.747Z,29.1
2019-06-26T00:20:36.061Z,29.1
2019-06-26T00:21:37.353Z,29
2019-06-26T00:22:38.641Z,29
2019-06-26T00:23:39.955Z,29
2019-06-26T00:24:41.309Z,29
2019-06-26T00:25:42.597Z,29
2019-06-26T00:26:43.896Z,29
2019-06-26T00:27:45.234Z,29
2019-06-26T00:28:47.109Z,28.9
2019-06-26T00:29:48.386Z,29
2019-06-26T00:30:49.720Z,28.9
2019-06-26T00:31:50.994Z,28.9
2019-06-26T00:32:52.295Z,28.9
2019-06-26T00:33:53.855Z,28.9
2019-06-26T00:34:55.123Z,28.9
2019-06-26T00:35:56.397Z,28.9
2019-06-26T00:36:57.681Z,28.9
2019-06-26T00:37:58.983Z,28.9
2019-06-26T00:39:00.285Z,28.9
2019-06-26T00:40:01.701Z,28.9
2019-06-26T00:41:02.997Z,28.9
2019-06-26T00:42:04.400Z,28.9
2019-06-26T00:43:05.755Z,28.9
2019-06-26T00:44:07.101Z,28.9
2019-06-26T00:45:08.369Z,28.9
2019-06-26T00:46:09.631Z,28.9
2019-06-26T00:47:10.974Z,28.9
2019-06-26T00:48:12.255Z,28.9
2019-06-26T00:49:13.621Z,28.9
2019-06-26T00:50:14.904Z,28.9
2019-06-26T00:51:16.213Z,28.9
2019-06-26T00:52:17.511Z,28.8
2019-06-26T00:53:18.793Z,28.8
2019-06-26T00:54:20.213Z,28.8
2019-06-26T00:55:21.508Z,28.8
2019-06-26T00:56:22.797Z,28.9
2019-06-26T00:57:24.088Z,28.8
2019-06-26T00:58:25.386Z,28.8
2019-06-26T00:59:26.709Z,28.8
2019-06-26T01:00:28.015Z,28.8
2019-06-26T01:01:29.295Z,28.8
2019-06-26T01:02:30.573Z,28.8
2019-06-26T01:03:31.861Z,28.9
2019-06-26T01:04:33.697Z,28.9
2019-06-26T01:05:35.231Z,28.9
2019-06-26T01:06:36.547Z,28.9
2019-06-26T01:07:37.816Z,28.9
2019-06-26T01:08:39.095Z,28.9
2019-06-26T01:09:40.422Z,28.8
2019-06-26T01:10:41.713Z,28.8
2019-06-26T01:11:42.976Z,28.8
2019-06-26T01:12:44.250Z,28.8
2019-06-26T01:13:57.572Z,28.7
2019-06-26T01:14:59.591Z,28.8
2019-06-26T01:16:00.875Z,28.8
2019-06-26T01:17:02.294Z,28.8
2019-06-26T01:18:03.607Z,28.8
2019-06-26T01:19:04.912Z,28.6
2019-06-26T01:20:06.253Z,28.6
2019-06-26T01:21:07.556Z,28.7
2019-06-26T01:22:08.898Z,28.7
2019-06-26T01:23:10.203Z,28.7
2019-06-26T01:24:11.503Z,28.7
2019-06-26T01:25:12.810Z,28.7
2019-06-26T01:26:14.113Z,28.7
2019-06-26T01:27:15.423Z,28.7
2019-06-26T01:28:16.718Z,28.7
2019-06-26T01:29:18.015Z,28.7
2019-06-26T01:30:19.382Z,28.6
2019-06-26T01:31:20.675Z,28.5
2019-06-26T01:32:21.955Z,28.6
2019-06-26T01:33:23.246Z,28.6
2019-06-26T01:34:24.525Z,28.5
2019-06-26T01:35:25.871Z,28.5
2019-06-26T01:36:27.189Z,28.5
2019-06-26T01:37:28.458Z,28.3
2019-06-26T01:38:29.932Z,28.2
2019-06-26T01:39:31.259Z,28.3
2019-06-26T01:40:32.596Z,28.4
2019-06-26T01:41:34.002Z,28.4
2019-06-26T01:42:35.297Z,28.5
2019-06-26T01:44:52.312Z,28.5
2019-06-26T01:45:53.673Z,28.4
2019-06-26T01:46:55.275Z,28.3
2019-06-26T01:47:56.557Z,28.3
2019-06-26T01:48:57.857Z,28.3
2019-06-26T01:49:59.154Z,28.3
2019-06-26T01:51:00.574Z,28.4
2019-06-26T01:52:01.892Z,28.5
2019-06-26T01:53:03.204Z,28.4
2019-06-26T01:54:04.554Z,28.4
2019-06-26T01:55:05.832Z,28.4
2019-06-26T01:56:07.162Z,28.4
2019-06-26T01:57:08.463Z,28.5
2019-06-26T01:58:09.743Z,28.5
2019-06-26T01:59:11.014Z,28.4
2019-06-26T02:00:12.320Z,28.3
2019-06-26T02:01:14.012Z,28.3
2019-06-26T02:02:15.296Z,28.4
2019-06-26T02:03:16.589Z,28.5
2019-06-26T02:04:17.858Z,28.2
2019-06-26T02:05:19.190Z,28.2
2019-06-26T02:06:20.553Z,28.1
2019-06-26T02:07:21.820Z,28.2
2019-06-26T02:08:23.125Z,28.3
2019-06-26T02:09:24.409Z,28.4
2019-06-26T02:10:25.738Z,28.4
2019-06-26T02:11:27.056Z,28.4
2019-06-26T02:12:28.361Z,28.3
2019-06-26T02:13:29.757Z,28.3
2019-06-26T02:14:31.825Z,28.3
2019-06-26T02:15:33.244Z,28.4
2019-06-26T02:16:34.564Z,28.3
2019-06-26T02:17:35.852Z,28.3
2019-06-26T02:18:37.269Z,28.3
2019-06-26T02:19:38.548Z,28.2
2019-06-26T02:20:39.872Z,28.1
2019-06-26T02:21:41.212Z,28.2
2019-06-26T02:22:42.694Z,28.1
2019-06-26T02:23:44.612Z,28.1
2019-06-26T02:24:45.927Z,28.1
2019-06-26T02:25:47.212Z,28.2
2019-06-26T02:26:48.584Z,28.2
2019-06-26T02:27:49.870Z,28.3
2019-06-26T02:28:51.177Z,28.3
2019-06-26T02:29:52.492Z,28.3
2019-06-26T02:30:53.784Z,28.2
2019-06-26T02:31:55.114Z,28.2
2019-06-26T02:32:56.611Z,28.2
2019-06-26T02:33:57.891Z,28.2
2019-06-26T02:34:59.290Z,28.1
2019-06-26T02:36:00.592Z,28
2019-06-26T02:37:01.929Z,28.1
2019-06-26T02:38:03.248Z,28.1
2019-06-26T02:39:04.538Z,28.1
2019-06-26T02:40:05.864Z,28.1
2019-06-26T02:41:07.150Z,28.1
2019-06-26T02:42:08.494Z,28.2
2019-06-26T02:43:09.838Z,28.2
2019-06-26T02:44:11.226Z,28.1
2019-06-26T02:45:12.556Z,28.1
2019-06-26T02:46:13.900Z,28.1
2019-06-26T02:47:19.931Z,28.1
2019-06-26T02:48:22.348Z,28.1
2019-06-26T02:49:23.640Z,28.1
2019-06-26T02:50:24.959Z,28.1
2019-06-26T02:51:26.341Z,28.1
2019-06-26T02:52:27.713Z,28
2019-06-26T02:53:29.210Z,28.1
2019-06-26T02:54:30.493Z,28.1
2019-06-26T02:55:32.178Z,28.1
2019-06-26T02:56:33.424Z,28
2019-06-26T02:57:34.867Z,28.1
2019-06-26T02:58:36.177Z,28.1
2019-06-26T02:59:37.531Z,28.1
2019-06-26T03:00:38.810Z,28
2019-06-26T03:01:40.142Z,28
2019-06-26T03:02:41.498Z,28
2019-06-26T03:03:42.812Z,28.1
2019-06-26T03:04:44.126Z,28.1
2019-06-26T03:05:45.406Z,28.1
2019-06-26T03:06:46.730Z,28.1
2019-06-26T03:07:48.070Z,28.1
2019-06-26T03:08:49.388Z,28.1
2019-06-26T03:09:50.681Z,28.1
2019-06-26T03:10:52.060Z,28.1
2019-06-26T03:11:53.340Z,28
2019-06-26T03:12:54.679Z,28
2019-06-26T03:13:55.952Z,28
2019-06-26T03:15:08.041Z,27.9
2019-06-26T03:16:13.196Z,27.9
2019-06-26T03:17:14.508Z,28
2019-06-26T03:18:15.912Z,28
2019-06-26T03:19:17.198Z,28.1
2019-06-26T03:20:18.475Z,28.1
2019-06-26T03:21:19.769Z,28.1
2019-06-26T03:22:21.080Z,28.1
2019-06-26T03:23:22.464Z,28.1
2019-06-26T03:24:23.777Z,28.1
2019-06-26T03:25:25.035Z,28.1
2019-06-26T03:26:26.347Z,28.1
2019-06-26T03:27:27.680Z,28.1
2019-06-26T03:28:29.127Z,28.1
2019-06-26T03:29:30.420Z,28.1
2019-06-26T03:30:31.714Z,28
2019-06-26T03:31:33.010Z,28
2019-06-26T03:32:34.328Z,28.1
2019-06-26T03:33:35.682Z,28
2019-06-26T03:34:37.147Z,28.1
2019-06-26T03:35:40.691Z,28.1
2019-06-26T03:36:42.210Z,28.1
2019-06-26T03:37:43.506Z,28
2019-06-26T03:38:44.861Z,28.1
2019-06-26T03:39:46.147Z,28.1
2019-06-26T03:40:47.466Z,28.1
2019-06-26T03:41:48.784Z,28.1
2019-06-26T03:42:50.140Z,28.1
2019-06-26T03:43:51.546Z,28.1
2019-06-26T03:44:52.838Z,28.1
2019-06-26T03:45:54.141Z,28.1
2019-06-26T03:46:55.459Z,28.1
2019-06-26T03:47:56.746Z,28.1
2019-06-26T03:48:58.084Z,28.1
2019-06-26T03:49:59.475Z,28.1
2019-06-26T03:51:00.916Z,28.1
2019-06-26T03:52:02.225Z,28.1
2019-06-26T03:53:03.542Z,28.1
2019-06-26T03:54:04.900Z,28.1
2019-06-26T03:55:06.189Z,28.1
2019-06-26T03:56:07.531Z,28.1
2019-06-26T03:57:08.904Z,28.1
2019-06-26T03:58:10.216Z,28.1
2019-06-26T03:59:11.571Z,28.1
2019-06-26T04:00:12.992Z,28.1
2019-06-26T04:01:17.137Z,28
2019-06-26T04:02:18.416Z,28.1
2019-06-26T04:03:19.681Z,28.1
2019-06-26T04:04:21.098Z,28.1
2019-06-26T04:05:22.737Z,28.1
2019-06-26T04:06:24.035Z,28.1
2019-06-26T04:07:25.334Z,28.1
2019-06-26T04:08:26.652Z,28.1
2019-06-26T04:09:27.995Z,28.1
2019-06-26T04:10:29.304Z,28.1
2019-06-26T04:11:30.577Z,28.1
2019-06-26T04:12:31.903Z,28.2
2019-06-26T04:13:33.393Z,28.2
2019-06-26T04:14:35.215Z,28.2
2019-06-26T04:15:41.733Z,28.1
2019-06-26T04:16:43.886Z,28.1
2019-06-26T04:17:45.187Z,28.1
2019-06-26T04:18:46.465Z,28.2
2019-06-26T04:19:47.795Z,28.2
2019-06-26T04:20:49.172Z,28.2
2019-06-26T04:21:50.472Z,28.2
2019-06-26T04:22:51.749Z,28.2
2019-06-26T04:23:53.016Z,28.3
2019-06-26T04:26:08.449Z,28.2
2019-06-26T04:27:09.733Z,28.3
2019-06-26T04:28:11.007Z,28.3
2019-06-26T04:29:12.301Z,28.4
2019-06-26T04:30:13.585Z,28.4
2019-06-26T04:31:14.919Z,28.3
2019-06-26T04:32:16.273Z,28.4
2019-06-26T04:33:17.890Z,28.5
2019-06-26T04:34:19.222Z,28.5
2019-06-26T04:35:20.561Z,28.5
2019-06-26T04:36:21.943Z,28.5
2019-06-26T04:37:23.587Z,28.6
2019-06-26T04:38:25.131Z,28.6
2019-06-26T04:39:26.401Z,28.5
2019-06-26T04:40:27.684Z,28.6
2019-06-26T04:41:29.019Z,28.6
2019-06-26T04:42:30.287Z,28.5
2019-06-26T04:43:31.615Z,28.6
2019-06-26T04:44:32.936Z,28.6
2019-06-26T04:45:34.252Z,28.6
2019-06-26T04:46:35.556Z,28.7
2019-06-26T04:47:36.969Z,28.7
2019-06-26T04:48:38.275Z,28.8
2019-06-26T04:49:39.571Z,28.8
2019-06-26T04:50:40.912Z,28.9
2019-06-26T04:51:42.243Z,28.9
2019-06-26T04:52:43.525Z,28.9
2019-06-26T04:53:44.846Z,28.9
2019-06-26T04:54:46.132Z,28.9
2019-06-26T04:55:47.421Z,29
2019-06-26T04:56:48.760Z,29
2019-06-26T04:57:50.114Z,29.1
2019-06-26T04:58:51.450Z,29.1
2019-06-26T04:59:52.718Z,29.1
2019-06-26T05:00:54.447Z,29.1
2019-06-26T05:01:55.807Z,29.1
2019-06-26T05:02:57.149Z,29.2
2019-06-26T05:03:58.432Z,29.2
2019-06-26T05:04:59.714Z,29.2
2019-06-26T05:06:01.007Z,29.3
2019-06-26T05:07:02.365Z,29.3
2019-06-26T05:08:03.655Z,29.3
2019-06-26T05:09:05.263Z,29.4
2019-06-26T05:10:06.594Z,29.4
2019-06-26T05:11:07.902Z,29.4
2019-06-26T05:12:09.241Z,29.4
2019-06-26T05:13:10.494Z,29.5
2019-06-26T05:14:11.768Z,29.5
2019-06-26T05:15:13.052Z,29.5
2019-06-26T05:16:16.504Z,29.4
2019-06-26T05:17:21.373Z,29.5
2019-06-26T05:18:22.627Z,29.5
2019-06-26T05:19:23.912Z,29.5
2019-06-26T05:20:25.244Z,29.5
2019-06-26T05:21:26.556Z,29.6
2019-06-26T05:22:27.870Z,29.6
2019-06-26T05:23:29.139Z,29.6
2019-06-26T05:24:30.426Z,29.8
2019-06-26T05:25:31.724Z,29.8
2019-06-26T05:26:33.027Z,29.8
2019-06-26T05:27:34.362Z,29.8
2019-06-26T05:28:35.633Z,29.8
2019-06-26T05:29:36.973Z,29.8
2019-06-26T05:30:38.256Z,29.8
2019-06-26T05:31:39.630Z,29.9
2019-06-26T05:32:40.987Z,29.9
2019-06-26T05:33:43.203Z,30
2019-06-26T05:34:44.498Z,30
2019-06-26T05:35:45.977Z,30.1
2019-06-26T05:36:47.288Z,30.2
2019-06-26T05:37:48.658Z,30.3
2019-06-26T05:38:49.934Z,30.3
2019-06-26T05:39:54.534Z,30.3
2019-06-26T05:40:56.133Z,30.4
2019-06-26T05:41:57.409Z,30.4
2019-06-26T05:42:58.736Z,30.4
2019-06-26T05:43:59.992Z,30.5
2019-06-26T05:45:01.298Z,30.5
2019-06-26T05:46:02.680Z,30.6
2019-06-26T05:47:06.907Z,30.5
2019-06-26T05:48:08.512Z,30.6
2019-06-26T05:49:09.807Z,30.6
2019-06-26T05:50:11.112Z,30.7
2019-06-26T05:51:12.388Z,30.7
2019-06-26T05:52:16.554Z,30.8
2019-06-26T05:53:18.143Z,30.8
2019-06-26T05:54:19.397Z,30.8
2019-06-26T05:55:20.691Z,30.9
2019-06-26T05:56:21.971Z,31
2019-06-26T05:57:23.232Z,30.9
2019-06-26T05:58:24.558Z,30.9
2019-06-26T05:59:25.836Z,30.9
2019-06-26T06:00:29.562Z,31
2019-06-26T06:01:30.889Z,31
2019-06-26T06:02:32.311Z,31.3
2019-06-26T06:03:33.617Z,31.4
2019-06-26T06:04:34.922Z,31.5
2019-06-26T06:05:36.220Z,31.6
2019-06-26T06:06:41.360Z,31.7
2019-06-26T06:07:43.539Z,31.7
2019-06-26T06:08:44.864Z,31.8
2019-06-26T06:09:46.120Z,31.9
2019-06-26T06:10:47.395Z,31.9
2019-06-26T06:11:48.658Z,32
2019-06-26T06:12:49.956Z,32
2019-06-26T06:13:51.290Z,31.9
2019-06-26T06:14:52.819Z,32
2019-06-26T06:15:54.075Z,32.1
2019-06-26T06:16:55.339Z,32.2
2019-06-26T06:17:56.729Z,32.1
2019-06-26T06:18:58.066Z,32.1
2019-06-26T06:19:59.394Z,32.1
2019-06-26T06:21:01.331Z,32.1
2019-06-26T06:22:02.682Z,32.2
2019-06-26T06:23:03.985Z,32.3
2019-06-26T06:24:05.296Z,32.3
2019-06-26T06:25:06.570Z,32.4
2019-06-26T06:26:07.864Z,32.4
2019-06-26T06:27:09.291Z,32.3
2019-06-26T06:28:11.114Z,32.4
2019-06-26T06:29:12.446Z,32.3
2019-06-26T06:30:13.760Z,32.5
2019-06-26T06:31:15.062Z,32.5
2019-06-26T06:32:16.354Z,32.6
2019-06-26T06:33:17.646Z,32.6
2019-06-26T06:34:18.979Z,32.6
2019-06-26T06:35:20.284Z,32.7
2019-06-26T06:36:21.581Z,32.7
2019-06-26T06:37:22.868Z,32.8
2019-06-26T06:38:24.351Z,32.7
2019-06-26T06:39:26.056Z,32.8
2019-06-26T06:40:27.344Z,32.9
2019-06-26T06:41:28.608Z,32.9
2019-06-26T06:42:29.894Z,33
2019-06-26T06:43:31.210Z,33
2019-06-26T06:44:32.622Z,33.1
2019-06-26T06:45:33.970Z,33.2
2019-06-26T06:46:35.238Z,33.2
2019-06-26T06:47:36.513Z,33.2
2019-06-26T06:48:37.814Z,33.3
2019-06-26T06:49:39.182Z,33.3
2019-06-26T06:50:40.447Z,33.4
2019-06-26T06:51:41.732Z,33.4
2019-06-26T06:52:43.032Z,33.4
2019-06-26T06:53:44.353Z,33.4
2019-06-26T06:54:45.890Z,33.5
2019-06-26T06:55:47.183Z,33.5
2019-06-26T06:56:48.456Z,33.6
2019-06-26T06:57:49.732Z,33.6
2019-06-26T06:58:51.060Z,33.7
2019-06-26T06:59:52.376Z,33.8
2019-06-26T07:00:53.713Z,33.8
2019-06-26T07:01:55.049Z,33.8
2019-06-26T07:02:56.318Z,33.9
2019-06-26T07:03:57.768Z,34
2019-06-26T07:04:59.173Z,34
2019-06-26T07:06:00.491Z,34.1
2019-06-26T07:07:01.794Z,34.2
2019-06-26T07:08:03.206Z,34.2
2019-06-26T07:09:04.532Z,34.3
2019-06-26T07:10:05.900Z,34.2
2019-06-26T07:11:07.198Z,34.2
2019-06-26T07:12:08.484Z,34.2
2019-06-26T07:13:09.794Z,34.3
2019-06-26T07:14:11.101Z,34.4
2019-06-26T07:15:12.442Z,34.5
2019-06-26T07:16:13.720Z,34.5
2019-06-26T07:17:20.223Z,34.6
2019-06-26T07:18:22.338Z,34.6
2019-06-26T07:19:23.739Z,34.6
2019-06-26T07:20:25.026Z,34.7
2019-06-26T07:21:26.319Z,34.7
2019-06-26T07:22:27.596Z,34.8
2019-06-26T07:23:28.932Z,34.8
2019-06-26T07:24:30.294Z,34.8
2019-06-26T07:25:31.594Z,34.9
2019-06-26T07:26:32.927Z,34.9
2019-06-26T07:27:34.208Z,35
2019-06-26T07:28:35.499Z,35
2019-06-26T07:29:36.786Z,35
2019-06-26T07:30:38.223Z,35.1
2019-06-26T07:31:39.504Z,35.1
2019-06-26T07:32:40.858Z,35.2
2019-06-26T07:33:42.161Z,35.2
2019-06-26T07:34:43.471Z,35.3
2019-06-26T07:35:44.789Z,35.3
2019-06-26T07:36:46.411Z,35.2
2019-06-26T07:37:47.787Z,35.3
2019-06-26T07:38:49.080Z,35.3
2019-06-26T07:39:50.530Z,35.3
2019-06-26T07:40:51.864Z,35.4
2019-06-26T07:41:53.183Z,35.5
2019-06-26T07:42:54.462Z,35.4
2019-06-26T07:43:55.775Z,35.6
2019-06-26T07:44:57.171Z,35.6
2019-06-26T07:45:58.524Z,35.7
2019-06-26T07:46:59.808Z,35.8
2019-06-26T07:48:01.180Z,35.8
2019-06-26T07:49:02.484Z,35.8
2019-06-26T07:50:03.847Z,35.9
2019-06-26T07:51:05.216Z,35.9
2019-06-26T07:52:06.955Z,35.9
2019-06-26T07:53:08.303Z,35.9
2019-06-26T07:54:09.841Z,35.9
2019-06-26T07:55:12.211Z,36
2019-06-26T07:56:14.885Z,36
2019-06-26T07:57:16.181Z,36
2019-06-26T07:58:17.459Z,36
2019-06-26T07:59:18.723Z,36
2019-06-26T08:00:20.092Z,36.1
2019-06-26T08:01:21.439Z,36.1
2019-06-26T08:02:22.771Z,36.1
2019-06-26T08:03:24.139Z,36.1
2019-06-26T08:04:25.441Z,36.1
2019-06-26T08:05:27.906Z,36.2
2019-06-26T08:06:29.226Z,36.2
2019-06-26T08:07:30.554Z,36.3
2019-06-26T08:08:31.856Z,36.4
2019-06-26T08:09:33.161Z,36.5
2019-06-26T08:10:34.468Z,36.5
2019-06-26T08:11:36.003Z,36.5
2019-06-26T08:12:37.480Z,36.5
2019-06-26T08:13:38.754Z,36.6
2019-06-26T08:14:40.030Z,36.6
2019-06-26T08:15:41.435Z,36.7
2019-06-26T08:16:42.750Z,36.7
2019-06-26T08:17:59.045Z,36.7
2019-06-26T08:19:02.409Z,36.8
2019-06-26T08:20:03.807Z,36.8
2019-06-26T08:21:11.855Z,36.8
2019-06-26T08:22:16.633Z,36.9
2019-06-26T08:23:18.043Z,36.9
2019-06-26T08:24:19.385Z,36.8
2019-06-26T08:25:20.713Z,36.9
2019-06-26T08:26:24.438Z,36.9
2019-06-26T08:27:25.891Z,36.9
2019-06-26T08:28:27.626Z,37
2019-06-26T08:29:28.897Z,37
2019-06-26T08:30:30.235Z,37
2019-06-26T08:31:31.548Z,37
2019-06-26T08:32:32.903Z,37
2019-06-26T08:33:34.651Z,37.2
2019-06-26T08:34:36.910Z,37.2
2019-06-26T08:35:38.223Z,37.2
2019-06-26T08:36:39.715Z,37.3
2019-06-26T08:37:41.046Z,37.2
2019-06-26T08:38:42.363Z,37.3
2019-06-26T08:39:43.747Z,37.3
2019-06-26T08:40:45.039Z,37.3
2019-06-26T08:41:46.325Z,37.1
2019-06-26T08:42:47.687Z,37.3
2019-06-26T08:43:48.970Z,37.2
2019-06-26T08:44:50.369Z,37.2
2019-06-26T08:45:51.860Z,37.4
2019-06-26T08:46:53.169Z,37.4
2019-06-26T08:47:54.582Z,37.4
2019-06-26T08:48:55.869Z,37.4
2019-06-26T08:49:57.471Z,37.4
2019-06-26T08:50:58.791Z,37.5
2019-06-26T08:52:00.136Z,37.5
2019-06-26T08:53:01.514Z,37.5
2019-06-26T08:54:04.745Z,37.5
2019-06-26T08:55:06.176Z,37.5
2019-06-26T08:56:07.485Z,37.5
2019-06-26T08:57:08.802Z,37.6
2019-06-26T08:58:10.138Z,37.5
2019-06-26T08:59:11.851Z,37.5
2019-06-26T09:00:13.140Z,37.5
2019-06-26T09:01:14.592Z,37.5
2019-06-26T09:02:15.876Z,37.6
2019-06-26T09:03:17.243Z,37.6
2019-06-26T09:04:18.551Z,37.6
2019-06-26T09:05:19.813Z,37.6
2019-06-26T09:06:21.185Z,37.6
2019-06-26T09:07:22.468Z,37.6
2019-06-26T09:08:23.843Z,37.6
2019-06-26T09:09:25.571Z,37.6
2019-06-26T09:10:26.874Z,37.6
2019-06-26T09:11:28.195Z,37.6
2019-06-26T09:12:29.616Z,37.6
2019-06-26T09:13:30.971Z,37.6
2019-06-26T09:14:32.349Z,37.7
2019-06-26T09:15:33.646Z,37.7
2019-06-26T09:16:35.045Z,37.6
2019-06-26T09:17:36.332Z,37.5
2019-06-26T09:18:37.842Z,37.5
2019-06-26T09:19:39.111Z,37.4
2019-06-26T09:20:40.453Z,37.3
2019-06-26T09:21:41.770Z,37.3
2019-06-26T09:22:43.047Z,37.3
2019-06-26T09:23:44.423Z,37.3
2019-06-26T09:24:45.768Z,37.2
2019-06-26T09:25:47.035Z,37.2
2019-06-26T09:26:48.363Z,37.2
2019-06-26T09:27:50.790Z,37.3
2019-06-26T09:28:52.148Z,37.2
2019-06-26T09:29:53.517Z,37.3
2019-06-26T09:30:54.845Z,37.2
2019-06-26T09:31:56.153Z,37.2
2019-06-26T09:32:57.512Z,37.2
2019-06-26T09:33:58.894Z,37.2
2019-06-26T09:35:00.202Z,37.2
2019-06-26T09:36:01.565Z,37.2
2019-06-26T09:37:03.064Z,37.2
2019-06-26T09:38:04.372Z,37.2
2019-06-26T09:39:05.725Z,37.2
2019-06-26T09:40:07.058Z,37.2
2019-06-26T09:41:08.405Z,37
2019-06-26T09:42:09.758Z,37.2
2019-06-26T09:43:11.427Z,37.2
2019-06-26T09:44:13.005Z,37.2
2019-06-26T09:45:16.808Z,37.2
2019-06-26T09:46:18.794Z,37.2
2019-06-26T09:47:20.169Z,37.2
2019-06-26T09:48:21.466Z,37.2
2019-06-26T09:49:23.019Z,37.2
2019-06-26T09:50:24.910Z,37.2
2019-06-26T09:51:26.643Z,37.1
2019-06-26T09:52:28.061Z,37.1
2019-06-26T09:53:42.534Z,37.1
2019-06-26T09:54:48.748Z,37.1
2019-06-26T09:55:50.087Z,37.1
2019-06-26T09:56:51.392Z,37.1
2019-06-26T09:57:55.173Z,37.1
2019-06-26T09:58:56.466Z,37
2019-06-26T09:59:57.860Z,37
2019-06-26T10:00:59.240Z,37
2019-06-26T10:02:00.540Z,37
2019-06-26T10:03:01.879Z,37
2019-06-26T10:04:03.276Z,37
2019-06-26T10:05:04.748Z,36.9
2019-06-26T10:06:06.112Z,37
2019-06-26T10:07:07.428Z,37
2019-06-26T10:08:08.703Z,37
2019-06-26T10:09:10.031Z,37
2019-06-26T10:10:11.333Z,37
2019-06-26T10:11:12.747Z,36.9
2019-06-26T10:12:14.098Z,36.9
2019-06-26T10:13:15.371Z,36.9
2019-06-26T10:14:16.820Z,36.9
2019-06-26T10:15:19.198Z,36.9
2019-06-26T10:16:20.589Z,36.9
2019-06-26T10:17:21.870Z,36.8
2019-06-26T10:18:23.145Z,36.8
2019-06-26T10:19:24.433Z,36.8
2019-06-26T10:20:25.760Z,36.8
2019-06-26T10:21:30.556Z,36.8
2019-06-26T10:22:31.867Z,36.8
2019-06-26T10:23:33.179Z,36.8
2019-06-26T10:24:34.439Z,36.8
2019-06-26T10:25:35.791Z,36.8
2019-06-26T10:26:37.112Z,36.8
2019-06-26T10:27:38.575Z,36.8
2019-06-26T10:28:39.977Z,36.8
2019-06-26T10:29:41.287Z,36.8
2019-06-26T10:30:42.639Z,36.8
2019-06-26T10:31:43.967Z,36.8
2019-06-26T10:32:45.272Z,36.7
2019-06-26T10:33:46.595Z,36.7
2019-06-26T10:34:47.929Z,36.7
2019-06-26T10:35:49.255Z,36.7
2019-06-26T10:36:50.555Z,36.7
2019-06-26T10:37:51.885Z,36.7
2019-06-26T10:38:53.171Z,36.7
2019-06-26T10:39:54.491Z,36.7
2019-06-26T10:40:55.919Z,36.7
2019-06-26T10:41:58.079Z,36.7
2019-06-26T10:42:59.374Z,36.7
2019-06-26T10:44:00.827Z,36.7
2019-06-26T10:45:02.111Z,36.7
2019-06-26T10:46:03.456Z,36.7
2019-06-26T10:47:04.744Z,36.6
2019-06-26T10:48:06.053Z,36.6
2019-06-26T10:49:07.446Z,36.6
2019-06-26T10:50:08.902Z,36.6
2019-06-26T10:51:10.246Z,36.6
2019-06-26T10:52:11.537Z,36.6
2019-06-26T10:53:12.891Z,36.5
2019-06-26T10:54:14.225Z,36.5
2019-06-26T10:55:15.525Z,36.5
2019-06-26T10:56:16.931Z,36.5
2019-06-26T10:57:18.527Z,36.5
2019-06-26T10:58:19.901Z,36.5
2019-06-26T10:59:21.179Z,36.5
2019-06-26T11:00:22.464Z,36.4
2019-06-26T11:01:23.791Z,36.4
2019-06-26T11:02:25.121Z,36.4
2019-06-26T11:03:26.405Z,36.4
2019-06-26T11:04:27.692Z,36.4
2019-06-26T11:05:28.987Z,36.4
2019-06-26T11:06:30.325Z,36.5
2019-06-26T11:07:31.614Z,36.5
2019-06-26T11:08:37.299Z,36.5
2019-06-26T11:09:38.713Z,36.4
2019-06-26T11:10:42.523Z,36.4
2019-06-26T11:11:44.175Z,36.4
2019-06-26T11:12:48.797Z,36.4
2019-06-26T11:13:50.429Z,36.4
2019-06-26T11:14:51.794Z,36.3
2019-06-26T11:15:54.166Z,36.4
2019-06-26T11:16:55.551Z,36.3
2019-06-26T11:17:56.873Z,36.3
2019-06-26T11:18:58.185Z,36.3
2019-06-26T11:19:59.453Z,36.3
2019-06-26T11:21:01.014Z,36.3
2019-06-26T11:22:02.798Z,36.3
2019-06-26T11:23:05.046Z,36.3
2019-06-26T11:24:06.443Z,36.3
2019-06-26T11:25:07.758Z,36.3
2019-06-26T11:26:09.161Z,36.3
2019-06-26T11:27:10.519Z,36.3
2019-06-26T11:28:11.798Z,36.2
2019-06-26T11:29:13.137Z,36.2
2019-06-26T11:30:16.680Z,36.2
2019-06-26T11:31:19.018Z,36.2
2019-06-26T11:32:20.403Z,36.2
2019-06-26T11:33:21.743Z,36.2
2019-06-26T11:34:23.030Z,36.2
2019-06-26T11:35:24.385Z,36.2
2019-06-26T11:36:25.684Z,36.2
2019-06-26T11:37:27.012Z,36.2
2019-06-26T11:38:28.332Z,36.2
2019-06-26T11:39:29.644Z,36.2
2019-06-26T11:40:30.955Z,36.2
2019-06-26T11:41:32.221Z,36.1
2019-06-26T11:42:33.549Z,36.1
2019-06-26T11:43:34.939Z,36.1
2019-06-26T11:44:36.272Z,36.1
2019-06-26T11:45:37.534Z,36.1
2019-06-26T11:46:38.806Z,36.1
2019-06-26T11:47:40.347Z,36.1
2019-06-26T11:48:41.652Z,36.1
2019-06-26T11:49:55.792Z,36.1
2019-06-26T11:51:01.198Z,36.1
2019-06-26T11:52:02.572Z,36.1
2019-06-26T11:53:04.041Z,36.1
2019-06-26T11:54:05.732Z,36.1
2019-06-26T11:55:07.043Z,36.1
2019-06-26T11:56:08.386Z,36.1
2019-06-26T11:57:09.709Z,36.1
2019-06-26T11:58:11.028Z,36
2019-06-26T11:59:12.265Z,36
2019-06-26T12:00:13.537Z,36
2019-06-26T12:01:14.811Z,36
2019-06-26T12:02:16.079Z,36
2019-06-26T12:03:17.419Z,36
2019-06-26T12:04:18.805Z,36
2019-06-26T12:05:20.125Z,36
2019-06-26T12:06:21.402Z,36
2019-06-26T12:07:22.694Z,36
2019-06-26T12:08:24.030Z,36
2019-06-26T12:09:25.361Z,36
2019-06-26T12:10:27.826Z,36
2019-06-26T12:11:29.133Z,35.9
2019-06-26T12:12:30.425Z,35.9
2019-06-26T12:13:33.451Z,35.9
2019-06-26T12:14:34.931Z,35.9
2019-06-26T12:15:36.244Z,35.9
2019-06-26T12:16:37.520Z,35.9
2019-06-26T12:17:38.904Z,35.9
2019-06-26T12:18:40.240Z,35.9
2019-06-26T12:19:41.557Z,35.8
2019-06-26T12:20:42.855Z,35.9
2019-06-26T12:21:44.157Z,35.9
2019-06-26T12:22:45.504Z,35.9
2019-06-26T12:23:46.885Z,35.9
2019-06-26T12:24:48.556Z,35.9
2019-06-26T12:25:50.419Z,35.8
2019-06-26T12:26:51.768Z,35.8
2019-06-26T12:27:53.052Z,35.8
2019-06-26T12:28:54.380Z,35.8
2019-06-26T12:29:55.670Z,35.8
2019-06-26T12:30:56.951Z,35.8
2019-06-26T12:31:58.247Z,35.8
2019-06-26T12:33:03.179Z,35.8
2019-06-26T12:34:08.030Z,35.8
2019-06-26T12:35:09.324Z,35.8
2019-06-26T12:36:10.665Z,35.8
2019-06-26T12:37:11.957Z,35.8
2019-06-26T12:38:13.260Z,35.8
2019-06-26T12:39:14.622Z,35.8
2019-06-26T12:40:15.919Z,35.8
2019-06-26T12:41:17.600Z,35.8
2019-06-26T12:42:18.941Z,35.8
2019-06-26T12:43:20.252Z,35.8
2019-06-26T12:44:21.569Z,35.7
2019-06-26T12:45:22.880Z,35.8
2019-06-26T12:46:24.173Z,35.8
2019-06-26T12:47:25.488Z,35.7
2019-06-26T12:48:26.814Z,35.7
2019-06-26T12:49:28.158Z,35.7
2019-06-26T12:50:35.049Z,35.7
2019-06-26T12:51:37.152Z,35.7
2019-06-26T12:52:39.030Z,35.7
2019-06-26T12:53:40.377Z,35.7
2019-06-26T12:54:41.739Z,35.7
2019-06-26T12:55:43.022Z,35.7
2019-06-26T12:56:44.290Z,35.7
2019-06-26T12:57:45.588Z,35.7
2019-06-26T12:58:46.887Z,35.7
2019-06-26T12:59:57.044Z,35.7
2019-06-26T13:00:59.008Z,35.7
2019-06-26T13:02:00.391Z,35.7
2019-06-26T13:03:01.828Z,35.7
2019-06-26T13:04:03.166Z,35.7
2019-06-26T13:05:04.480Z,35.7
2019-06-26T13:06:05.754Z,35.7
2019-06-26T13:07:07.180Z,35.6
2019-06-26T13:08:08.549Z,35.6
2019-06-26T13:09:09.816Z,35.6
2019-06-26T13:10:11.352Z,35.6
2019-06-26T13:11:12.664Z,35.6
2019-06-26T13:12:13.943Z,35.6
2019-06-26T13:13:15.254Z,35.6
2019-06-26T13:14:16.550Z,35.6
2019-06-26T13:15:17.860Z,35.6
2019-06-26T13:16:19.145Z,35.6
2019-06-26T13:17:20.471Z,35.6
2019-06-26T13:18:21.794Z,35.6
2019-06-26T13:19:23.124Z,35.6
2019-06-26T13:20:24.523Z,35.6
2019-06-26T13:21:25.912Z,35.6
2019-06-26T13:22:27.361Z,35.6
2019-06-26T13:23:28.749Z,35.6
2019-06-26T13:24:30.068Z,35.6
2019-06-26T13:25:31.471Z,35.5
2019-06-26T13:26:32.728Z,35.5
2019-06-26T13:27:34.020Z,35.5
2019-06-26T13:28:35.318Z,35.5
2019-06-26T13:29:36.748Z,35.6
2019-06-26T13:30:38.158Z,35.5
2019-06-26T13:31:39.444Z,35.5
2019-06-26T13:32:40.731Z,35.5
2019-06-26T13:33:42.148Z,35.5
2019-06-26T13:34:43.453Z,35.5
2019-06-26T13:35:44.744Z,35.5
2019-06-26T13:36:46.048Z,35.5
2019-06-26T13:37:47.332Z,35.5
2019-06-26T13:38:48.733Z,35.5
2019-06-26T13:39:50.076Z,35.5
2019-06-26T13:40:51.408Z,35.5
2019-06-26T13:41:52.700Z,35.5
2019-06-26T13:42:53.965Z,35.4
2019-06-26T13:43:55.258Z,35.4
2019-06-26T13:44:56.548Z,35.5
2019-06-26T13:45:58.801Z,35.5
2019-06-26T13:47:00.250Z,35.5